Time;durP1;ratioP1;P1;durP2;ratioP2;P2;SDS_P1;SDS_P2;PMS_P1;PMS_P2;Temp;Humidity;BMP_temperature;BMP_pressure;BME280_temperature;BME280_humidity;BME280_pressure;Samples;Min_cycle;Max_cycle;Signal;HPM_P1;HPM_P2
2022/08/27 00:02:14;;;;;;;2.03;1.00;;;19.90;61.10;;;;;;4960656;28;20041;-78
2022/08/27 00:04:41;;;;;;;1.70;1.00;;;19.90;61.30;;;;;;4958182;28;20252;-78
2022/08/27 00:07:07;;;;;;;1.92;1.00;;;19.80;61.30;;;;;;4941464;28;20034;-78
2022/08/27 00:09:34;;;;;;;2.97;1.15;;;19.80;61.40;;;;;;4959303;28;20030;-79
2022/08/27 00:12:00;;;;;;;1.67;1.10;;;19.70;61.40;;;;;;4971887;28;20117;-78
2022/08/27 00:14:27;;;;;;;1.00;0.73;;;19.60;61.50;;;;;;4958621;28;20026;-78
2022/08/27 00:16:54;;;;;;;2.90;0.95;;;19.60;61.70;;;;;;4938200;28;20502;-78
2022/08/27 00:19:20;;;;;;;1.83;0.88;;;19.60;61.80;;;;;;4964977;28;20384;-78
2022/08/27 00:21:46;;;;;;;2.17;1.00;;;19.50;61.80;;;;;;4952254;28;20625;-78
2022/08/27 00:24:11;;;;;;;1.55;0.90;;;19.40;61.90;;;;;;4947162;28;21771;-78
2022/08/27 00:26:38;;;;;;;4.10;1.43;;;19.40;62.10;;;;;;4949621;28;20118;-78
2022/08/27 00:29:04;;;;;;;2.35;1.10;;;19.30;63.10;;;;;;4953362;28;20043;-78
2022/08/27 00:31:29;;;;;;;2.53;1.10;;;19.30;62.50;;;;;;4950884;28;20053;-78
2022/08/27 00:33:56;;;;;;;1.65;0.88;;;19.30;62.60;;;;;;4931657;28;20023;-78
2022/08/27 00:36:24;;;;;;;2.37;1.20;;;19.20;62.70;;;;;;4934508;28;20112;-78
2022/08/27 00:38:50;;;;;;;1.70;0.90;;;19.20;62.80;;;;;;4928591;28;20023;-78
2022/08/27 00:41:18;;;;;;;1.67;1.05;;;19.20;62.90;;;;;;4896753;28;20031;-78
2022/08/27 00:43:56;;;;;;;3.20;1.10;;;19.20;63.10;;;;;;4934955;28;20031;-79
2022/08/27 00:46:25;;;;;;;2.10;1.00;;;19.20;63.40;;;;;;4947178;28;20027;-79
2022/08/27 00:48:54;;;;;;;1.70;1.07;;;19.10;63.00;;;;;;4933984;28;20028;-78
2022/08/27 00:51:20;;;;;;;1.88;1.02;;;19.10;63.20;;;;;;4937691;28;20031;-78
2022/08/27 00:53:48;;;;;;;1.95;0.88;;;19.10;63.00;;;;;;4914135;28;20034;-78
2022/08/27 00:56:19;;;;;;;1.95;1.00;;;19.10;63.10;;;;;;4947393;28;20035;-78
2022/08/27 00:58:47;;;;;;;1.63;1.10;;;19.00;63.30;;;;;;4952585;28;20034;-78
2022/08/27 01:01:16;;;;;;;3.93;1.10;;;19.00;63.30;;;;;;4958618;28;20601;-78
2022/08/27 01:03:46;;;;;;;1.48;1.00;;;18.90;63.50;;;;;;4958203;28;20027;-78
2022/08/27 01:06:14;;;;;;;1.30;0.88;;;18.90;63.50;;;;;;4944785;28;20039;-78
2022/08/27 01:08:45;;;;;;;1.80;1.00;;;18.90;63.50;;;;;;4936354;28;20480;-79
2022/08/27 01:11:11;;;;;;;3.15;1.10;;;18.90;63.70;;;;;;4944839;28;20039;-79
2022/08/27 01:13:38;;;;;;;1.90;1.00;;;18.80;63.50;;;;;;4941840;28;20030;-78
2022/08/27 01:16:06;;;;;;;2.80;1.10;;;18.80;63.60;;;;;;4927726;28;20495;-79
2022/08/27 01:18:34;;;;;;;1.50;1.10;;;18.80;63.70;;;;;;4926666;28;20037;-78
2022/08/27 01:21:15;;;;;;;2.88;1.17;;;18.80;63.80;;;;;;4946617;28;20067;-78
2022/08/27 01:24:07;;;;;;;2.40;0.90;;;18.70;64.40;;;;;;4936475;28;20015;-78
2022/08/27 01:26:33;;;;;;;2.00;1.00;;;18.70;64.00;;;;;;4922208;28;20031;-78
2022/08/27 01:28:59;;;;;;;2.88;1.17;;;18.70;63.70;;;;;;4951820;28;20101;-78
2022/08/27 01:31:25;;;;;;;2.15;1.20;;;18.60;63.80;;;;;;4931716;28;20116;-78
2022/08/27 01:33:58;;;;;;;1.92;1.00;;;18.60;64.10;;;;;;4929424;28;20062;-78
2022/08/27 01:36:24;;;;;;;2.00;1.10;;;18.60;64.60;;;;;;4917067;28;20352;-79
2022/08/27 01:38:50;;;;;;;2.90;1.20;;;18.60;64.30;;;;;;4952519;28;20031;-78
2022/08/27 01:41:18;;;;;;;1.42;1.10;;;18.60;64.30;;;;;;4933459;28;21165;-78
2022/08/27 01:43:44;;;;;;;1.77;1.13;;;18.50;64.50;;;;;;4955246;28;20432;-78
2022/08/27 01:46:10;;;;;;;3.37;1.30;;;18.50;64.40;;;;;;4932420;28;20153;-78
2022/08/27 01:48:35;;;;;;;2.33;1.20;;;18.50;64.50;;;;;;4948252;28;20034;-78
2022/08/27 01:51:01;;;;;;;1.60;1.20;;;18.50;64.50;;;;;;4956372;28;20600;-78
2022/08/27 01:53:26;;;;;;;1.90;1.10;;;18.40;64.40;;;;;;4956772;28;20026;-78
2022/08/27 01:55:53;;;;;;;2.00;1.30;;;18.40;64.50;;;;;;4947479;28;20431;-79
2022/08/27 01:58:23;;;;;;;2.33;1.25;;;18.40;64.60;;;;;;4930945;28;20043;-79
2022/08/27 02:00:52;;;;;;;1.52;1.10;;;18.30;64.80;;;;;;4937892;28;20031;-79
2022/08/27 02:03:18;;;;;;;3.00;1.20;;;18.30;64.90;;;;;;4957908;28;20221;-78
2022/08/27 02:05:46;;;;;;;3.00;1.30;;;18.20;64.60;;;;;;4957952;28;20023;-79
2022/08/27 02:08:16;;;;;;;2.72;1.20;;;18.20;64.80;;;;;;4924199;28;20114;-78
2022/08/27 02:10:44;;;;;;;1.88;1.10;;;18.10;65.10;;;;;;4957255;28;20034;-79
2022/08/27 02:13:12;;;;;;;1.70;1.02;;;18.10;64.80;;;;;;4918887;28;20073;-79
2022/08/27 02:15:39;;;;;;;1.58;1.00;;;18.00;64.70;;;;;;4958968;28;20029;-78
2022/08/27 02:18:06;;;;;;;2.10;1.03;;;18.00;64.80;;;;;;4956117;28;20301;-79
2022/08/27 02:20:32;;;;;;;2.05;1.02;;;17.90;64.90;;;;;;4962249;28;20023;-78
2022/08/27 02:22:57;;;;;;;2.65;1.30;;;17.90;64.90;;;;;;4948044;28;20057;-78
2022/08/27 02:25:25;;;;;;;1.80;1.10;;;17.90;65.00;;;;;;4957568;28;20030;-78
2022/08/27 02:27:51;;;;;;;2.03;1.03;;;17.80;65.20;;;;;;4916141;28;20050;-78
2022/08/27 02:30:19;;;;;;;3.38;1.30;;;17.70;65.30;;;;;;4962935;28;20526;-79
2022/08/27 02:32:46;;;;;;;1.60;1.20;;;17.70;65.40;;;;;;4956784;28;20376;-78
2022/08/27 02:35:16;;;;;;;2.50;1.20;;;17.70;65.40;;;;;;4957331;28;20380;-78
2022/08/27 02:37:43;;;;;;;1.10;1.00;;;17.60;65.90;;;;;;4931833;28;20480;-78
2022/08/27 02:40:10;;;;;;;2.10;1.02;;;17.60;65.60;;;;;;4940072;28;20671;-79
2022/08/27 02:42:36;;;;;;;1.75;1.05;;;17.50;65.60;;;;;;4958817;28;20054;-78
2022/08/27 02:45:06;;;;;;;2.40;1.13;;;17.50;65.70;;;;;;4918902;28;20670;-79
2022/08/27 02:47:33;;;;;;;2.07;1.20;;;17.50;65.90;;;;;;4946904;28;20026;-79
2022/08/27 02:49:59;;;;;;;1.40;1.00;;;17.40;65.90;;;;;;4962663;28;20145;-79
2022/08/27 02:52:28;;;;;;;1.90;1.10;;;17.40;65.90;;;;;;4944810;28;20027;-78
2022/08/27 02:54:55;;;;;;;2.53;1.30;;;17.40;66.30;;;;;;4928308;28;20160;-78
2022/08/27 02:57:22;;;;;;;2.97;1.10;;;17.40;66.10;;;;;;4954112;28;20030;-79
2022/08/27 02:59:49;;;;;;;1.92;1.00;;;17.30;66.10;;;;;;4923958;28;20399;-79
2022/08/27 03:02:14;;;;;;;1.30;0.90;;;17.30;66.20;;;;;;4949142;28;20037;-78
2022/08/27 03:04:40;;;;;;;1.73;1.00;;;17.30;66.30;;;;;;4959272;28;20018;-78
2022/08/27 03:07:06;;;;;;;2.43;1.00;;;17.30;66.40;;;;;;4944588;28;20829;-78
2022/08/27 03:09:33;;;;;;;1.95;1.10;;;17.20;66.30;;;;;;4961558;28;20371;-78
2022/08/27 03:12:00;;;;;;;2.13;1.00;;;17.20;66.40;;;;;;4963071;28;20037;-78
2022/08/27 03:14:27;;;;;;;3.42;1.13;;;17.20;67.40;;;;;;4939071;28;20038;-78
2022/08/27 03:16:53;;;;;;;2.30;0.90;;;17.10;66.70;;;;;;4932593;28;20607;-78
2022/08/27 03:19:20;;;;;;;2.15;1.00;;;17.10;66.90;;;;;;4964725;28;20031;-79
2022/08/27 03:21:47;;;;;;;2.17;1.20;;;17.10;67.10;;;;;;4957391;28;20462;-78
2022/08/27 03:24:13;;;;;;;3.42;1.20;;;17.10;67.20;;;;;;4925323;28;20045;-78
2022/08/27 03:26:39;;;;;;;2.17;1.10;;;17.20;67.40;;;;;;4951031;28;20507;-78
2022/08/27 03:29:06;;;;;;;3.17;1.37;;;17.20;67.60;;;;;;4950689;28;22569;-78
2022/08/27 03:31:32;;;;;;;2.90;1.10;;;17.20;67.70;;;;;;4941969;28;20030;-79
2022/08/27 03:34:01;;;;;;;1.52;1.20;;;17.20;67.80;;;;;;4951792;28;20045;-79
2022/08/27 03:36:28;;;;;;;3.03;1.20;;;17.30;68.10;;;;;;4982103;28;20073;-79
2022/08/27 03:38:55;;;;;;;3.53;1.40;;;17.30;68.10;;;;;;4934772;28;20557;-79
2022/08/27 03:41:21;;;;;;;2.17;1.20;;;17.30;68.10;;;;;;4978635;28;20109;-79
2022/08/27 03:43:48;;;;;;;2.03;1.20;;;17.40;68.20;;;;;;4974950;28;20019;-79
2022/08/27 03:46:16;;;;;;;2.97;1.23;;;17.40;68.40;;;;;;4953191;28;20034;-79
2022/08/27 03:48:41;;;;;;;2.63;1.20;;;17.40;68.50;;;;;;4956679;28;20481;-79
2022/08/27 03:51:10;;;;;;;3.03;1.40;;;17.50;68.60;;;;;;4970237;28;20288;-78
2022/08/27 03:53:38;;;;;;;2.03;1.20;;;17.50;68.90;;;;;;4983388;28;20066;-79
2022/08/27 03:56:05;;;;;;;2.70;1.30;;;17.60;68.70;;;;;;4959806;28;21280;-78
2022/08/27 03:58:31;;;;;;;2.05;1.30;;;17.60;68.60;;;;;;4953017;28;20033;-78
2022/08/27 04:00:57;;;;;;;2.47;1.27;;;17.70;68.70;;;;;;4954799;28;20240;-79
2022/08/27 04:03:23;;;;;;;2.22;1.35;;;17.70;68.60;;;;;;4947076;28;20387;-79
2022/08/27 04:05:57;;;;;;;1.80;1.33;;;17.70;68.60;;;;;;4951601;28;20507;-78
2022/08/27 04:08:23;;;;;;;2.42;1.30;;;17.70;69.00;;;;;;4965335;28;20030;-79
2022/08/27 04:10:50;;;;;;;2.30;1.30;;;17.80;68.40;;;;;;4960837;28;20578;-79
2022/08/27 04:13:17;;;;;;;2.17;1.17;;;17.70;68.20;;;;;;4977584;28;20391;-79
2022/08/27 04:15:44;;;;;;;1.90;1.27;;;17.70;68.10;;;;;;4947275;28;20034;-79
2022/08/27 04:18:11;;;;;;;2.00;1.13;;;17.70;68.20;;;;;;4959479;28;20534;-78
2022/08/27 04:20:37;;;;;;;1.95;1.20;;;17.70;68.10;;;;;;4927681;28;20085;-79
2022/08/27 04:23:04;;;;;;;2.70;1.30;;;17.70;68.10;;;;;;4981183;28;20015;-79
2022/08/27 04:25:30;;;;;;;4.97;1.30;;;17.60;68.20;;;;;;4980799;28;20030;-79
2022/08/27 04:27:57;;;;;;;2.10;1.20;;;17.60;68.20;;;;;;4929985;28;20249;-79
2022/08/27 04:30:22;;;;;;;2.15;1.17;;;17.50;68.10;;;;;;4951576;28;20043;-79
2022/08/27 04:32:49;;;;;;;2.90;1.40;;;17.50;68.10;;;;;;4935464;28;20124;-79
2022/08/27 04:35:15;;;;;;;1.85;1.20;;;17.50;68.10;;;;;;4928492;28;20042;-78
2022/08/27 04:37:41;;;;;;;2.38;1.20;;;17.40;68.10;;;;;;4954854;28;20054;-79
2022/08/27 04:40:08;;;;;;;2.77;1.23;;;17.40;68.10;;;;;;4939182;28;20484;-79
2022/08/27 04:42:33;;;;;;;2.03;1.13;;;17.30;68.10;;;;;;4897082;28;20283;-79
2022/08/27 04:44:59;;;;;;;2.13;1.20;;;17.30;68.10;;;;;;4920798;28;20248;-79
2022/08/27 04:47:25;;;;;;;2.95;1.35;;;17.20;68.20;;;;;;4948519;28;20280;-79
2022/08/27 04:49:51;;;;;;;2.07;1.30;;;17.20;68.20;;;;;;4926536;28;20320;-79
2022/08/27 04:52:17;;;;;;;1.75;1.10;;;17.20;68.30;;;;;;4931451;28;20030;-79
2022/08/27 04:54:43;;;;;;;1.83;1.30;;;17.20;68.30;;;;;;4946365;28;20439;-79
2022/08/27 04:57:09;;;;;;;2.33;1.27;;;17.20;68.20;;;;;;4935989;28;20023;-79
2022/08/27 04:59:35;;;;;;;2.35;1.30;;;17.10;68.30;;;;;;4958021;28;20050;-79
2022/08/27 05:02:04;;;;;;;4.28;1.17;;;17.10;68.30;;;;;;4934097;28;20375;-78
2022/08/27 05:04:30;;;;;;;1.92;1.30;;;17.00;68.40;;;;;;4944703;28;20397;-79
2022/08/27 05:06:56;;;;;;;2.20;1.17;;;17.00;68.30;;;;;;4918957;28;20493;-79
2022/08/27 05:09:22;;;;;;;2.00;1.20;;;17.00;68.40;;;;;;4932627;28;20617;-79
2022/08/27 05:11:50;;;;;;;1.98;1.10;;;16.90;68.50;;;;;;4962495;28;20030;-79
2022/08/27 05:14:18;;;;;;;2.92;1.30;;;16.90;68.60;;;;;;4936404;28;20607;-79
2022/08/27 05:16:46;;;;;;;1.63;1.20;;;16.90;68.70;;;;;;4950950;28;20023;-79
2022/08/27 05:19:15;;;;;;;1.42;1.17;;;16.80;68.80;;;;;;4936332;28;20128;-79
2022/08/27 05:21:49;;;;;;;1.77;1.10;;;16.80;69.00;;;;;;4934638;28;20417;-79
2022/08/27 05:24:15;;;;;;;1.98;1.10;;;16.80;70.80;;;;;;4925438;28;20055;-78
2022/08/27 05:26:41;;;;;;;2.28;1.20;;;16.80;70.40;;;;;;4935379;28;20405;-79
2022/08/27 05:29:07;;;;;;;2.10;1.17;;;16.80;69.90;;;;;;4957409;28;20192;-79
2022/08/27 05:31:33;;;;;;;3.38;1.40;;;16.90;70.30;;;;;;4968136;28;20105;-79
2022/08/27 05:34:00;;;;;;;3.05;1.40;;;17.00;70.50;;;;;;4965349;28;20153;-79
2022/08/27 05:36:31;;;;;;;1.83;1.23;;;17.00;70.80;;;;;;4966535;28;20029;-79
2022/08/27 05:39:00;;;;;;;2.55;1.40;;;17.10;71.30;;;;;;4950130;28;20137;-79
2022/08/27 05:41:28;;;;;;;2.40;1.20;;;17.10;71.10;;;;;;4927118;28;20026;-78
2022/08/27 05:43:58;;;;;;;2.80;1.50;;;17.20;71.20;;;;;;4954260;28;20030;-78
2022/08/27 05:46:26;;;;;;;2.88;1.48;;;17.30;71.30;;;;;;4933328;28;20268;-78
2022/08/27 05:48:54;;;;;;;2.40;1.50;;;17.40;71.20;;;;;;4950992;28;20022;-79
2022/08/27 05:51:29;;;;;;;2.58;1.40;;;17.50;71.20;;;;;;4961133;28;20030;-79
2022/08/27 05:54:18;;;;;;;2.50;1.40;;;17.50;71.30;;;;;;4942184;28;20062;-79
2022/08/27 05:56:44;;;;;;;2.00;1.40;;;17.60;72.00;;;;;;4941948;28;20034;-79
2022/08/27 06:01:55;;;;;;;2.30;1.40;;;17.70;71.30;;;;;;4975076;28;20057;-79
2022/08/27 06:04:23;;;;;;;2.40;1.38;;;17.80;71.40;;;;;;4936437;28;20105;-79
2022/08/27 06:06:50;;;;;;;2.40;1.40;;;17.90;71.50;;;;;;4947809;28;20089;-79
2022/08/27 06:09:18;;;;;;;2.13;1.30;;;18.00;71.50;;;;;;4950371;28;20034;-79
2022/08/27 06:11:45;;;;;;;3.05;1.52;;;18.10;71.80;;;;;;4950782;28;20022;-79
2022/08/27 06:14:12;;;;;;;3.03;1.30;;;18.20;71.80;;;;;;4947182;28;20402;-79
2022/08/27 06:16:39;;;;;;;3.78;1.50;;;18.30;71.80;;;;;;4970802;28;20030;-79
2022/08/27 06:19:07;;;;;;;2.87;1.70;;;18.30;71.70;;;;;;4960894;28;20289;-79
2022/08/27 06:21:33;;;;;;;2.60;1.50;;;18.40;71.80;;;;;;4974630;28;20019;-79
2022/08/27 06:23:59;;;;;;;1.98;1.25;;;18.50;71.70;;;;;;4930725;28;20022;-79
2022/08/27 06:26:26;;;;;;;2.25;1.20;;;18.60;71.80;;;;;;4952748;28;20321;-78
2022/08/27 06:28:52;;;;;;;2.10;1.20;;;18.70;71.70;;;;;;4943805;28;20105;-79
2022/08/27 06:31:21;;;;;;;3.43;1.40;;;18.80;71.70;;;;;;4968395;28;20030;-79
2022/08/27 06:33:49;;;;;;;3.03;1.20;;;18.90;71.70;;;;;;4934329;28;20046;-79
2022/08/27 06:36:17;;;;;;;2.50;1.40;;;19.00;71.70;;;;;;4950801;28;20039;-79
2022/08/27 06:38:43;;;;;;;3.38;1.20;;;19.00;71.70;;;;;;4929124;28;21776;-78
2022/08/27 06:41:11;;;;;;;2.53;1.30;;;19.10;71.70;;;;;;4955981;28;20014;-79
2022/08/27 06:43:39;;;;;;;2.10;1.43;;;19.20;71.70;;;;;;4947108;28;20019;-79
2022/08/27 06:46:07;;;;;;;2.13;1.27;;;19.30;71.70;;;;;;4974480;28;20023;-79
2022/08/27 06:48:33;;;;;;;1.73;1.20;;;19.40;71.80;;;;;;4960693;28;20109;-79
2022/08/27 06:50:59;;;;;;;2.05;1.20;;;19.50;71.80;;;;;;4968514;28;20054;-79
2022/08/27 06:53:25;;;;;;;3.42;1.20;;;19.60;71.60;;;;;;4966903;28;20026;-79
2022/08/27 06:55:51;;;;;;;1.87;1.30;;;19.70;71.40;;;;;;4926554;28;20026;-79
2022/08/27 06:58:18;;;;;;;3.60;1.33;;;19.80;71.30;;;;;;4957494;28;20271;-79
2022/08/27 07:00:44;;;;;;;2.63;1.30;;;19.90;71.20;;;;;;4940138;28;20295;-79
2022/08/27 07:03:11;;;;;;;2.23;1.20;;;19.90;71.00;;;;;;4972262;28;20261;-78
2022/08/27 07:05:39;;;;;;;2.97;1.23;;;20.00;71.00;;;;;;4965808;28;20324;-79
2022/08/27 07:08:06;;;;;;;2.83;1.13;;;20.10;71.10;;;;;;4963611;28;20023;-79
2022/08/27 07:10:33;;;;;;;2.10;1.20;;;20.20;71.10;;;;;;4938900;28;20026;-79
2022/08/27 07:12:59;;;;;;;2.13;1.17;;;20.30;71.00;;;;;;4956973;28;20144;-79
2022/08/27 07:15:25;;;;;;;1.27;1.00;;;20.40;71.00;;;;;;4971125;28;20023;-78
2022/08/27 07:17:52;;;;;;;2.40;1.30;;;20.50;71.00;;;;;;4960522;28;20283;-78
2022/08/27 07:20:18;;;;;;;2.40;0.93;;;20.60;70.80;;;;;;4966653;28;20077;-80
2022/08/27 07:22:45;;;;;;;2.33;0.90;;;20.70;70.80;;;;;;4964110;28;20389;-79
2022/08/27 07:25:14;;;;;;;1.23;0.80;;;20.80;70.80;;;;;;4963992;28;20038;-79
2022/08/27 07:27:40;;;;;;;1.50;0.87;;;21.00;70.70;;;;;;4940119;28;20601;-79
2022/08/27 07:30:11;;;;;;;2.40;0.90;;;21.10;71.00;;;;;;4944766;28;20031;-78
2022/08/27 07:32:37;;;;;;;0.98;0.70;;;21.40;71.50;;;;;;4970737;28;20622;-79
2022/08/27 07:35:08;;;;;;;1.27;0.90;;;21.60;71.50;;;;;;4946203;28;20022;-79
2022/08/27 07:37:34;;;;;;;1.85;0.93;;;21.90;71.10;;;;;;4951762;28;20117;-78
2022/08/27 07:40:02;;;;;;;2.90;0.80;;;22.10;70.30;;;;;;4951172;28;20080;-79
2022/08/27 07:45:13;;;;;;;2.75;0.85;;;22.50;68.80;;;;;;4958606;28;20719;-79
2022/08/27 07:47:38;;;;;;;1.60;0.70;;;22.60;68.30;;;;;;4973371;28;20168;-80
2022/08/27 07:50:05;;;;;;;2.10;0.90;;;22.80;68.10;;;;;;4927675;28;20018;-79
2022/08/27 07:52:30;;;;;;;2.03;0.90;;;22.80;68.00;;;;;;4959384;28;20030;-78
2022/08/27 07:54:57;;;;;;;1.40;0.80;;;22.90;67.90;;;;;;4960011;28;20025;-79
2022/08/27 07:57:22;;;;;;;2.00;0.90;;;23.00;68.30;;;;;;4911841;28;20099;-79
2022/08/27 07:59:48;;;;;;;1.92;1.00;;;23.20;66.90;;;;;;4960468;28;20030;-79
2022/08/27 08:02:14;;;;;;;1.93;0.90;;;23.20;66.70;;;;;;4957661;28;20034;-79
2022/08/27 08:04:40;;;;;;;1.80;0.90;;;23.40;67.10;;;;;;4972559;28;20309;-79
2022/08/27 08:07:05;;;;;;;2.33;0.80;;;23.60;67.20;;;;;;4972119;28;20022;-79
2022/08/27 08:09:32;;;;;;;2.85;1.05;;;23.80;66.80;;;;;;4972258;28;20377;-79
2022/08/27 08:11:57;;;;;;;1.52;0.70;;;23.90;66.20;;;;;;4958823;28;20130;-80
2022/08/27 08:14:23;;;;;;;1.67;0.90;;;24.10;66.00;;;;;;4942817;28;21434;-79
2022/08/27 08:16:49;;;;;;;1.75;0.70;;;24.30;66.20;;;;;;4959279;28;20073;-79
2022/08/27 08:19:15;;;;;;;1.87;0.80;;;24.50;66.20;;;;;;4972680;28;20483;-79
2022/08/27 08:21:41;;;;;;;2.75;0.85;;;24.80;66.30;;;;;;4967196;28;21150;-78
2022/08/27 08:24:07;;;;;;;1.83;0.88;;;25.10;66.20;;;;;;4953889;28;20015;-78
2022/08/27 08:26:33;;;;;;;2.23;0.90;;;25.40;66.00;;;;;;4963166;28;20029;-78
2022/08/27 08:29:03;;;;;;;1.48;0.80;;;25.80;66.60;;;;;;4945577;28;20046;-80
2022/08/27 08:31:29;;;;;;;1.83;0.80;;;26.20;67.80;;;;;;4950014;28;20511;-79
2022/08/27 08:33:54;;;;;;;2.50;1.10;;;26.70;67.50;;;;;;4980043;28;20027;-79
2022/08/27 08:36:20;;;;;;;1.70;0.90;;;27.20;67.70;;;;;;4934126;28;20034;-79
2022/08/27 08:38:46;;;;;;;1.90;0.82;;;27.80;67.70;;;;;;4936568;28;20089;-79
2022/08/27 08:41:24;;;;;;;1.83;0.87;;;28.40;66.70;;;;;;4971281;28;20046;-79
2022/08/27 08:43:50;;;;;;;1.73;0.90;;;29.00;62.90;;;;;;4930949;28;20049;-80
2022/08/27 08:46:23;;;;;;;1.63;1.02;;;29.50;63.60;;;;;;4950718;28;20046;-79
2022/08/27 08:48:54;;;;;;;2.05;1.02;;;30.00;61.10;;;;;;4949098;28;20312;-80
2022/08/27 08:51:30;;;;;;;1.92;1.02;;;30.40;60.30;;;;;;4950130;28;20253;-79
2022/08/27 08:54:05;;;;;;;2.60;1.10;;;30.80;58.20;;;;;;4950536;28;20041;-79
2022/08/27 08:56:42;;;;;;;2.50;1.10;;;31.10;56.70;;;;;;4972683;28;20037;-79
2022/08/27 08:59:17;;;;;;;1.35;0.90;;;31.20;54.50;;;;;;4954219;28;20069;-79
2022/08/27 09:01:44;;;;;;;1.60;0.98;;;31.20;53.90;;;;;;4958940;28;20022;-79
2022/08/27 09:04:11;;;;;;;1.30;0.90;;;31.10;55.00;;;;;;4944226;28;20101;-79
2022/08/27 09:06:49;;;;;;;1.70;0.90;;;31.20;55.10;;;;;;4965905;28;20225;-79
2022/08/27 09:09:30;;;;;;;1.63;1.20;;;31.40;55.10;;;;;;4959713;28;20029;-80
2022/08/27 09:12:18;;;;;;;3.15;1.20;;;31.80;53.10;;;;;;4970325;28;20019;-79
2022/08/27 09:15:12;;;;;;;2.17;1.10;;;32.10;54.40;;;;;;4933738;28;20514;-81
2022/08/27 09:17:40;;;;;;;2.40;1.40;;;32.60;53.10;;;;;;4938929;28;20372;-80
2022/08/27 09:20:07;;;;;;;1.80;1.33;;;33.10;55.60;;;;;;4967242;28;20022;-79
2022/08/27 09:23:00;;;;;;;1.90;1.50;;;33.50;54.40;;;;;;4962229;28;20059;-80
2022/08/27 09:25:38;;;;;;;1.48;1.38;;;33.90;50.10;;;;;;4951666;28;20325;-80
2022/08/27 09:31:10;;;;;;;1.77;1.20;;;34.80;49.30;;;;;;4943484;28;20093;-80
2022/08/27 09:33:36;;;;;;;1.97;1.40;;;35.20;49.60;;;;;;4949385;28;20051;-81
2022/08/27 09:36:06;;;;;;;1.55;1.35;;;35.50;50.40;;;;;;4951624;28;20501;-80
2022/08/27 09:38:33;;;;;;;1.95;1.42;;;35.70;48.10;;;;;;4942610;28;20229;-80
2022/08/27 09:41:06;;;;;;;1.23;1.10;;;35.80;47.20;;;;;;4964486;28;20038;-80
2022/08/27 09:43:32;;;;;;;1.30;1.17;;;35.80;45.70;;;;;;4961922;28;20015;-80
2022/08/27 09:46:04;;;;;;;1.60;1.45;;;35.90;46.00;;;;;;4948444;28;20019;-79
2022/08/27 09:48:35;;;;;;;3.03;1.45;;;36.00;44.90;;;;;;4946135;28;20512;-79
2022/08/27 09:51:07;;;;;;;2.33;1.65;;;36.10;43.80;;;;;;4959243;28;20015;-79
2022/08/27 09:53:39;;;;;;;2.17;1.30;;;36.10;44.40;;;;;;4972401;28;20023;-80
2022/08/27 09:56:08;;;;;;;2.78;1.33;;;36.20;43.60;;;;;;4947029;28;20316;-80
2022/08/27 09:59:00;;;;;;;2.20;1.67;;;36.40;43.80;;;;;;4969453;28;20026;-80
2022/08/27 10:01:29;;;;;;;1.33;1.23;;;36.50;40.90;;;;;;4895634;28;20049;-80
2022/08/27 10:04:12;;;;;;;1.85;1.42;;;36.50;42.60;;;;;;4947605;28;20057;-79
2022/08/27 10:06:45;;;;;;;1.40;1.30;;;36.50;40.30;;;;;;4953947;28;20041;-80
2022/08/27 10:09:20;;;;;;;2.13;1.10;;;36.20;39.60;;;;;;4976067;28;20093;-79
2022/08/27 10:12:09;;;;;;;1.23;1.00;;;35.80;39.00;;;;;;4965581;28;20059;-80
2022/08/27 10:14:45;;;;;;;2.38;1.17;;;35.30;38.50;;;;;;4971433;28;20083;-80
2022/08/27 10:17:43;;;;;;;1.30;1.20;;;35.10;40.20;;;;;;4922370;28;20026;-80
2022/08/27 10:20:08;;;;;;;1.73;1.10;;;34.90;39.50;;;;;;4915533;28;20432;-80
2022/08/27 10:22:53;;;;;;;1.98;1.08;;;34.70;40.80;;;;;;4952451;28;20053;-81
2022/08/27 10:25:31;;;;;;;1.90;0.98;;;34.60;39.10;;;;;;4930313;28;20038;-79
2022/08/27 10:28:13;;;;;;;1.67;1.10;;;34.30;38.70;;;;;;4931107;28;20113;-79
2022/08/27 10:31:05;;;;;;;1.05;0.90;;;33.90;38.90;;;;;;4946457;28;20031;-80
2022/08/27 10:33:49;;;;;;;1.60;1.08;;;33.50;39.10;;;;;;4920201;28;20479;-80
2022/08/27 10:36:29;;;;;;;2.38;1.10;;;32.90;38.50;;;;;;4952168;28;20114;-80
2022/08/27 10:39:13;;;;;;;1.40;0.80;;;32.30;39.00;;;;;;4952969;28;20019;-79
2022/08/27 10:42:10;;;;;;;2.57;1.20;;;31.80;39.50;;;;;;4961506;28;20092;-79
2022/08/27 10:45:13;;;;;;;1.10;0.80;;;31.40;39.40;;;;;;4929853;28;20161;-78
2022/08/27 10:47:45;;;;;;;1.85;0.98;;;31.00;40.30;;;;;;4986430;28;20056;-79
2022/08/27 10:50:27;;;;;;;2.17;1.00;;;30.60;40.60;;;;;;4941638;28;20125;-78
2022/08/27 10:53:21;;;;;;;2.10;0.98;;;30.40;41.10;;;;;;4980108;28;20041;-79
2022/08/27 10:55:51;;;;;;;2.07;1.00;;;30.50;42.20;;;;;;4971660;28;20278;-79
2022/08/27 10:58:44;;;;;;;1.90;1.00;;;30.70;44.40;;;;;;4962741;28;20037;-79
2022/08/27 11:01:21;;;;;;;1.80;0.90;;;31.10;43.30;;;;;;4969516;28;20058;-79
2022/08/27 11:04:20;;;;;;;1.90;0.95;;;31.30;42.90;;;;;;4979724;28;20176;-80
2022/08/27 11:07:01;;;;;;;1.20;0.80;;;31.30;41.60;;;;;;4916974;28;20758;-78
2022/08/27 11:09:46;;;;;;;2.90;0.80;;;31.30;41.40;;;;;;4971564;28;20033;-79
2022/08/27 11:12:17;;;;;;;1.63;0.95;;;31.10;40.90;;;;;;4965298;28;20062;-77
2022/08/27 11:15:01;;;;;;;2.20;1.00;;;31.00;41.20;;;;;;4965338;28;20510;-76
2022/08/27 11:17:35;;;;;;;1.73;0.90;;;30.70;40.90;;;;;;4975107;28;20655;-77
2022/08/27 11:20:13;;;;;;;1.95;1.10;;;30.50;41.00;;;;;;4934536;28;20284;-76
2022/08/27 11:22:46;;;;;;;1.57;1.00;;;30.30;41.30;;;;;;4975879;28;20045;-76
2022/08/27 11:25:21;;;;;;;1.92;1.00;;;30.10;41.60;;;;;;4974431;28;20539;-76
2022/08/27 11:27:52;;;;;;;2.13;0.90;;;29.90;41.70;;;;;;4969595;28;20050;-76
2022/08/27 11:30:33;;;;;;;1.15;0.82;;;29.80;42.00;;;;;;4969041;28;20514;-76
2022/08/27 11:33:24;;;;;;;2.08;1.00;;;29.60;42.60;;;;;;4965831;28;20054;-76
2022/08/27 11:36:15;;;;;;;2.10;0.90;;;29.50;43.00;;;;;;4954410;28;20513;-76
2022/08/27 11:39:03;;;;;;;2.47;0.80;;;29.50;43.20;;;;;;4977588;28;20042;-76
2022/08/27 11:42:00;;;;;;;1.55;1.00;;;29.60;43.30;;;;;;4965111;28;22194;-76
2022/08/27 11:44:27;;;;;;;3.08;1.20;;;29.70;43.90;;;;;;4943121;28;20026;-76
2022/08/27 11:47:18;;;;;;;1.60;0.90;;;29.90;44.30;;;;;;4968638;28;20030;-76
2022/08/27 11:50:11;;;;;;;1.30;0.90;;;30.10;44.30;;;;;;4966257;28;20030;-76
2022/08/27 11:52:40;;;;;;;1.70;1.00;;;30.40;44.10;;;;;;4960021;28;20440;-76
2022/08/27 11:55:13;;;;;;;2.50;1.00;;;30.70;44.20;;;;;;4981133;28;20662;-76
2022/08/27 11:57:39;;;;;;;2.13;1.10;;;30.80;43.60;;;;;;4975305;28;20443;-76
2022/08/27 12:00:16;;;;;;;1.52;1.00;;;30.90;43.60;;;;;;4959472;28;20480;-76
2022/08/27 12:02:42;;;;;;;1.47;1.00;;;31.00;42.90;;;;;;4966194;28;20050;-76
2022/08/27 12:05:21;;;;;;;1.17;1.00;;;31.10;43.10;;;;;;4975392;28;20031;-76
2022/08/27 12:07:50;;;;;;;2.08;1.10;;;31.20;42.60;;;;;;4950564;28;20038;-76
2022/08/27 12:10:25;;;;;;;1.77;1.00;;;31.30;43.20;;;;;;4972258;28;20041;-76
2022/08/27 12:13:26;;;;;;;2.00;1.23;;;31.40;43.10;;;;;;4957175;28;20089;-75
2022/08/27 12:16:15;;;;;;;1.80;0.90;;;31.70;42.40;;;;;;4971680;28;20756;-76
2022/08/27 12:19:22;;;;;;;1.45;1.00;;;31.90;42.00;;;;;;4956062;28;20408;-75
2022/08/27 12:22:08;;;;;;;1.52;0.90;;;32.00;41.60;;;;;;4967604;28;20058;-76
2022/08/27 12:24:53;;;;;;;1.50;1.00;;;32.00;41.40;;;;;;4929261;28;20062;-76
2022/08/27 12:27:24;;;;;;;2.38;1.00;;;32.00;41.90;;;;;;4954303;28;20530;-77
2022/08/27 12:30:21;;;;;;;1.80;1.00;;;32.00;41.90;;;;;;4960106;28;20035;-77
2022/08/27 12:32:52;;;;;;;1.95;1.10;;;32.00;40.90;;;;;;4947078;28;20042;-76
2022/08/27 12:35:30;;;;;;;1.98;1.33;;;31.90;41.10;;;;;;4937738;28;20407;-77
2022/08/27 12:38:20;;;;;;;1.88;1.30;;;31.80;40.90;;;;;;4956176;28;20302;-77
2022/08/27 12:40:52;;;;;;;2.80;1.20;;;31.60;40.50;;;;;;4951801;28;21061;-76
2022/08/27 12:43:27;;;;;;;1.80;1.00;;;31.40;40.30;;;;;;4969930;28;20044;-76
2022/08/27 12:46:00;;;;;;;2.25;1.17;;;31.30;40.30;;;;;;4949890;28;20120;-76
2022/08/27 12:48:29;;;;;;;2.22;1.17;;;31.00;40.80;;;;;;4973377;28;20041;-76
2022/08/27 12:51:06;;;;;;;2.03;1.23;;;30.90;41.00;;;;;;4972485;28;20026;-77
2022/08/27 12:53:45;;;;;;;1.52;0.90;;;30.70;40.90;;;;;;4938577;28;20065;-76
2022/08/27 12:56:16;;;;;;;2.77;1.03;;;30.70;41.30;;;;;;4975536;28;20522;-76
2022/08/27 12:59:04;;;;;;;1.88;1.10;;;30.70;41.60;;;;;;4972440;28;20216;-76
2022/08/27 13:01:59;;;;;;;2.03;1.02;;;30.60;41.20;;;;;;4933830;28;20400;-76
2022/08/27 13:04:29;;;;;;;1.95;1.10;;;30.50;41.40;;;;;;4969947;28;20041;-76
2022/08/27 13:06:56;;;;;;;1.85;1.10;;;30.40;41.40;;;;;;4979157;28;20049;-76
2022/08/27 13:09:32;;;;;;;1.93;1.10;;;30.40;41.60;;;;;;4935833;28;20030;-77
2022/08/27 13:11:59;;;;;;;1.95;1.10;;;30.30;41.40;;;;;;4967153;28;20371;-77
2022/08/27 13:14:27;;;;;;;2.50;1.13;;;30.20;41.70;;;;;;4946310;28;20022;-76
2022/08/27 13:17:22;;;;;;;1.30;1.15;;;30.20;41.80;;;;;;4960198;28;20458;-76